Main page
METAR-TAF:

METAR-TAF

Airports :

Badajoz Airport

Badajoz, Spain

latitude: 38-53N, longitude: 006-49W, elevation: 185 m

Current weather observation

The report was made 6 hours and 35 minutes ago, at 19:00 UTC
Wind 1 kt from variable directions
Temperature 32°C
Humidity 29%
Pressure 1014 hPa
Visibility 10 km or more
no clouds below 1500 m and no cumulonimbus

METAR: LEBZ 211900Z VRB01KT CAVOK 32/12 Q1014

Time: 03:35 (01:35 UTC)

Forecast

The report was made 2 hours and 35 minutes ago, at 23:00 UTC
Forecast valid from 22 at 00 UTC to 22 at 24 UTC
Wind 8 kt from the West
Visibility 10 km or more
Few clouds at a height of 4000 ft

TAF: LEBZ 212300Z 2200/2224 27008KT 9999 FEW040 TX32/2215Z TN20/2206Z

Weather observations and forecasts of more than 4000 airports (METAR and TAF reports).

The available stations are represented by yellow and red dots on the map.

Hover mouse over dot to see the name of the station.

Then click to see weather observations and forecasts.

To change the map : click on the green buttons with a black cross to zoom in, on the green button with a dash to zoom out, or on the green arrows for adjacent maps.


METAR-TAF: